sensor_id;sensor_type;location;lat;lon;timestamp;temperature;humidity
18173;DHT22;9211;48.818;9.312;2023-06-10T00:01:52;18.00;99.90
18173;DHT22;9211;48.818;9.312;2023-06-10T00:04:21;17.90;99.90
18173;DHT22;9211;48.818;9.312;2023-06-10T00:06:48;17.90;99.90
18173;DHT22;9211;48.818;9.312;2023-06-10T00:09:15;17.90;99.90
18173;DHT22;9211;48.818;9.312;2023-06-10T00:11:44;17.90;99.90
18173;DHT22;9211;48.818;9.312;2023-06-10T00:14:12;17.90;99.90
18173;DHT22;9211;48.818;9.312;2023-06-10T00:16:39;17.80;99.90
18173;DHT22;9211;48.818;9.312;2023-06-10T00:19:06;17.90;99.90
18173;DHT22;9211;48.818;9.312;2023-06-10T00:21:34;17.90;99.90
18173;DHT22;9211;48.818;9.312;2023-06-10T00:24:06;17.90;99.90
18173;DHT22;9211;48.818;9.312;2023-06-10T00:26:37;17.90;99.90
18173;DHT22;9211;48.818;9.312;2023-06-10T00:29:04;17.70;99.90
18173;DHT22;9211;48.818;9.312;2023-06-10T00:31:34;17.60;99.90
18173;DHT22;9211;48.818;9.312;2023-06-10T00:34:01;17.60;99.90
18173;DHT22;9211;48.818;9.312;2023-06-10T00:36:29;17.60;99.90
18173;DHT22;9211;48.818;9.312;2023-06-10T00:38:55;17.60;99.90
18173;DHT22;9211;48.818;9.312;2023-06-10T00:41:22;17.60;99.90
18173;DHT22;9211;48.818;9.312;2023-06-10T00:43:50;17.70;99.90
18173;DHT22;9211;48.818;9.312;2023-06-10T00:46:17;17.60;99.90
18173;DHT22;9211;48.818;9.312;2023-06-10T00:48:46;17.60;99.90
18173;DHT22;9211;48.818;9.312;2023-06-10T00:51:13;17.40;99.90
18173;DHT22;9211;48.818;9.312;2023-06-10T00:53:41;17.40;99.90
18173;DHT22;9211;48.818;9.312;2023-06-10T00:56:08;17.40;99.90
18173;DHT22;9211;48.818;9.312;2023-06-10T00:58:36;17.40;99.90
18173;DHT22;9211;48.818;9.312;2023-06-10T01:01:04;17.40;99.90
18173;DHT22;9211;48.818;9.312;2023-06-10T01:03:31;17.30;99.90
18173;DHT22;9211;48.818;9.312;2023-06-10T01:06:09;17.30;99.90
18173;DHT22;9211;48.818;9.312;2023-06-10T01:08:52;17.20;99.90
18173;DHT22;9211;48.818;9.312;2023-06-10T01:11:28;17.30;99.90
18173;DHT22;9211;48.818;9.312;2023-06-10T01:13:55;17.20;99.90
18173;DHT22;9211;48.818;9.312;2023-06-10T01:16:25;17.30;99.90
18173;DHT22;9211;48.818;9.312;2023-06-10T01:18:52;17.20;99.90
18173;DHT22;9211;48.818;9.312;2023-06-10T01:21:22;17.10;99.90
18173;DHT22;9211;48.818;9.312;2023-06-10T01:23:51;17.20;99.90
18173;DHT22;9211;48.818;9.312;2023-06-10T01:26:22;17.10;99.90
18173;DHT22;9211;48.818;9.312;2023-06-10T01:29:00;17.10;99.90
18173;DHT22;9211;48.818;9.312;2023-06-10T01:31:34;17.10;99.90
18173;DHT22;9211;48.818;9.312;2023-06-10T01:34:06;17.00;99.90
18173;DHT22;9211;48.818;9.312;2023-06-10T01:36:36;16.90;99.90
18173;DHT22;9211;48.818;9.312;2023-06-10T01:39:04;17.00;99.90
18173;DHT22;9211;48.818;9.312;2023-06-10T01:41:32;17.00;99.90
18173;DHT22;9211;48.818;9.312;2023-06-10T01:43:59;17.00;99.90
18173;DHT22;9211;48.818;9.312;2023-06-10T01:46:26;17.00;99.90
18173;DHT22;9211;48.818;9.312;2023-06-10T01:48:53;16.90;99.90
18173;DHT22;9211;48.818;9.312;2023-06-10T01:51:20;16.90;99.90
18173;DHT22;9211;48.818;9.312;2023-06-10T01:53:48;16.80;99.90
18173;DHT22;9211;48.818;9.312;2023-06-10T01:56:15;16.80;99.90
18173;DHT22;9211;48.818;9.312;2023-06-10T01:58:45;16.70;99.90
18173;DHT22;9211;48.818;9.312;2023-06-10T02:01:12;16.70;99.90
18173;DHT22;9211;48.818;9.312;2023-06-10T02:03:39;16.70;99.90
18173;DHT22;9211;48.818;9.312;2023-06-10T02:06:08;16.70;99.90
18173;DHT22;9211;48.818;9.312;2023-06-10T02:08:35;16.70;99.90
18173;DHT22;9211;48.818;9.312;2023-06-10T02:11:03;16.80;99.90
18173;DHT22;9211;48.818;9.312;2023-06-10T02:13:30;16.70;99.90
18173;DHT22;9211;48.818;9.312;2023-06-10T02:15:57;16.70;99.90
18173;DHT22;9211;48.818;9.312;2023-06-10T02:18:28;16.70;99.90
18173;DHT22;9211;48.818;9.312;2023-06-10T02:20:56;16.70;99.90
18173;DHT22;9211;48.818;9.312;2023-06-10T02:23:23;16.70;99.90
18173;DHT22;9211;48.818;9.312;2023-06-10T02:25:49;16.70;99.90
18173;DHT22;9211;48.818;9.312;2023-06-10T02:28:18;16.60;99.90
18173;DHT22;9211;48.818;9.312;2023-06-10T02:30:45;16.50;99.90
18173;DHT22;9211;48.818;9.312;2023-06-10T02:33:13;16.50;99.90
18173;DHT22;9211;48.818;9.312;2023-06-10T02:35:41;16.40;99.90
18173;DHT22;9211;48.818;9.312;2023-06-10T02:38:08;16.20;99.90
18173;DHT22;9211;48.818;9.312;2023-06-10T02:40:35;16.20;99.90
18173;DHT22;9211;48.818;9.312;2023-06-10T02:43:02;16.00;99.90
18173;DHT22;9211;48.818;9.312;2023-06-10T02:45:32;16.10;99.90
18173;DHT22;9211;48.818;9.312;2023-06-10T02:48:00;16.20;99.90
18173;DHT22;9211;48.818;9.312;2023-06-10T02:50:29;16.10;99.90
18173;DHT22;9211;48.818;9.312;2023-06-10T02:53:04;16.20;99.90
18173;DHT22;9211;48.818;9.312;2023-06-10T02:55:33;16.20;99.90
18173;DHT22;9211;48.818;9.312;2023-06-10T02:58:04;16.30;99.90
18173;DHT22;9211;48.818;9.312;2023-06-10T03:00:33;16.30;99.90
18173;DHT22;9211;48.818;9.312;2023-06-10T03:03:00;16.20;99.90
18173;DHT22;9211;48.818;9.312;2023-06-10T03:05:33;16.20;99.90
18173;DHT22;9211;48.818;9.312;2023-06-10T03:08:03;16.30;99.90
18173;DHT22;9211;48.818;9.312;2023-06-10T03:10:33;16.20;99.90
18173;DHT22;9211;48.818;9.312;2023-06-10T03:13:01;16.10;99.90
18173;DHT22;9211;48.818;9.312;2023-06-10T03:15:29;16.00;99.90
18173;DHT22;9211;48.818;9.312;2023-06-10T03:18:02;16.00;99.90
18173;DHT22;9211;48.818;9.312;2023-06-10T03:20:29;15.90;99.90
18173;DHT22;9211;48.818;9.312;2023-06-10T03:22:56;16.00;99.90
18173;DHT22;9211;48.818;9.312;2023-06-10T03:25:23;16.00;99.90
18173;DHT22;9211;48.818;9.312;2023-06-10T03:27:52;16.00;99.90
18173;DHT22;9211;48.818;9.312;2023-06-10T03:30:19;16.10;99.90
18173;DHT22;9211;48.818;9.312;2023-06-10T03:32:47;16.00;99.90
18173;DHT22;9211;48.818;9.312;2023-06-10T03:35:18;16.00;99.90
18173;DHT22;9211;48.818;9.312;2023-06-10T03:37:45;16.00;99.90
18173;DHT22;9211;48.818;9.312;2023-06-10T03:40:13;16.00;99.90
18173;DHT22;9211;48.818;9.312;2023-06-10T03:42:43;16.00;99.90
18173;DHT22;9211;48.818;9.312;2023-06-10T03:45:12;15.90;99.90
18173;DHT22;9211;48.818;9.312;2023-06-10T03:47:39;15.80;99.90
18173;DHT22;9211;48.818;9.312;2023-06-10T03:50:10;15.80;99.90
18173;DHT22;9211;48.818;9.312;2023-06-10T03:52:41;15.80;99.90
18173;DHT22;9211;48.818;9.312;2023-06-10T03:55:09;15.80;99.90
18173;DHT22;9211;48.818;9.312;2023-06-10T03:57:41;15.80;99.90
18173;DHT22;9211;48.818;9.312;2023-06-10T04:00:09;15.70;99.90
18173;DHT22;9211;48.818;9.312;2023-06-10T04:02:40;15.70;99.90
18173;DHT22;9211;48.818;9.312;2023-06-10T04:05:12;15.80;99.90
18173;DHT22;9211;48.818;9.312;2023-06-10T04:07:41;15.80;99.90
18173;DHT22;9211;48.818;9.312;2023-06-10T04:10:10;15.90;99.90
18173;DHT22;9211;48.818;9.312;2023-06-10T04:12:37;15.90;99.90
18173;DHT22;9211;48.818;9.312;2023-06-10T04:15:06;15.90;99.90
18173;DHT22;9211;48.818;9.312;2023-06-10T04:17:33;15.90;99.90
18173;DHT22;9211;48.818;9.312;2023-06-10T04:20:00;15.90;99.90
18173;DHT22;9211;48.818;9.312;2023-06-10T04:22:29;15.70;99.90
18173;DHT22;9211;48.818;9.312;2023-06-10T04:24:57;15.80;99.90
18173;DHT22;9211;48.818;9.312;2023-06-10T04:27:24;15.90;99.90
18173;DHT22;9211;48.818;9.312;2023-06-10T04:29:52;16.00;99.90
18173;DHT22;9211;48.818;9.312;2023-06-10T04:32:19;16.10;99.90
18173;DHT22;9211;48.818;9.312;2023-06-10T04:34:47;16.10;99.90
18173;DHT22;9211;48.818;9.312;2023-06-10T04:37:17;16.20;99.90
18173;DHT22;9211;48.818;9.312;2023-06-10T04:39:44;16.30;99.90
18173;DHT22;9211;48.818;9.312;2023-06-10T04:42:13;16.30;99.90
18173;DHT22;9211;48.818;9.312;2023-06-10T04:44:41;16.30;99.90
18173;DHT22;9211;48.818;9.312;2023-06-10T04:47:08;16.40;99.90
18173;DHT22;9211;48.818;9.312;2023-06-10T04:49:35;16.50;99.90
18173;DHT22;9211;48.818;9.312;2023-06-10T04:52:03;16.60;99.90
18173;DHT22;9211;48.818;9.312;2023-06-10T04:54:35;16.60;99.90
18173;DHT22;9211;48.818;9.312;2023-06-10T04:57:02;16.70;99.90
18173;DHT22;9211;48.818;9.312;2023-06-10T04:59:30;16.80;99.90
18173;DHT22;9211;48.818;9.312;2023-06-10T05:01:57;16.90;99.90
18173;DHT22;9211;48.818;9.312;2023-06-10T05:04:25;17.00;99.90
18173;DHT22;9211;48.818;9.312;2023-06-10T05:06:52;17.10;99.90
18173;DHT22;9211;48.818;9.312;2023-06-10T05:09:18;17.20;99.90
18173;DHT22;9211;48.818;9.312;2023-06-10T05:11:45;17.30;99.90
18173;DHT22;9211;48.818;9.312;2023-06-10T05:14:12;17.40;99.90
18173;DHT22;9211;48.818;9.312;2023-06-10T05:16:43;17.50;99.90
18173;DHT22;9211;48.818;9.312;2023-06-10T05:19:10;17.60;99.90
18173;DHT22;9211;48.818;9.312;2023-06-10T05:21:37;17.60;99.90
18173;DHT22;9211;48.818;9.312;2023-06-10T05:24:04;17.70;99.90
18173;DHT22;9211;48.818;9.312;2023-06-10T05:26:31;17.80;99.90
18173;DHT22;9211;48.818;9.312;2023-06-10T05:28:58;17.80;99.90
18173;DHT22;9211;48.818;9.312;2023-06-10T05:31:25;17.90;99.90
18173;DHT22;9211;48.818;9.312;2023-06-10T05:33:54;17.90;99.90
18173;DHT22;9211;48.818;9.312;2023-06-10T05:36:21;17.90;99.90
18173;DHT22;9211;48.818;9.312;2023-06-10T05:38:50;18.00;99.90
18173;DHT22;9211;48.818;9.312;2023-06-10T05:41:17;18.10;99.90
18173;DHT22;9211;48.818;9.312;2023-06-10T05:43:44;18.20;99.90
18173;DHT22;9211;48.818;9.312;2023-06-10T05:46:11;18.30;99.90
18173;DHT22;9211;48.818;9.312;2023-06-10T05:48:38;18.40;99.90
18173;DHT22;9211;48.818;9.312;2023-06-10T05:51:07;18.50;99.90
18173;DHT22;9211;48.818;9.312;2023-06-10T05:53:34;18.50;99.90
18173;DHT22;9211;48.818;9.312;2023-06-10T05:56:01;18.50;99.90
18173;DHT22;9211;48.818;9.312;2023-06-10T05:58:28;18.60;99.90
18173;DHT22;9211;48.818;9.312;2023-06-10T06:00:55;18.70;99.90
18173;DHT22;9211;48.818;9.312;2023-06-10T06:03:22;18.70;99.90
18173;DHT22;9211;48.818;9.312;2023-06-10T06:05:49;18.80;99.90
18173;DHT22;9211;48.818;9.312;2023-06-10T06:08:17;18.80;99.90
18173;DHT22;9211;48.818;9.312;2023-06-10T06:10:44;18.90;99.90
18173;DHT22;9211;48.818;9.312;2023-06-10T06:13:11;18.90;99.90
18173;DHT22;9211;48.818;9.312;2023-06-10T06:15:38;18.90;99.90
18173;DHT22;9211;48.818;9.312;2023-06-10T06:18:05;19.00;99.90
18173;DHT22;9211;48.818;9.312;2023-06-10T06:20:32;19.00;99.90
18173;DHT22;9211;48.818;9.312;2023-06-10T06:22:59;19.10;99.90
18173;DHT22;9211;48.818;9.312;2023-06-10T06:25:27;19.10;99.90
18173;DHT22;9211;48.818;9.312;2023-06-10T06:27:54;19.20;99.90
18173;DHT22;9211;48.818;9.312;2023-06-10T06:30:21;19.20;99.90
18173;DHT22;9211;48.818;9.312;2023-06-10T06:32:48;19.30;99.90
18173;DHT22;9211;48.818;9.312;2023-06-10T06:35:15;19.40;99.90
18173;DHT22;9211;48.818;9.312;2023-06-10T06:37:42;19.50;99.90
18173;DHT22;9211;48.818;9.312;2023-06-10T06:40:23;19.50;99.90
18173;DHT22;9211;48.818;9.312;2023-06-10T06:42:52;19.60;99.90
18173;DHT22;9211;48.818;9.312;2023-06-10T06:45:39;19.70;99.90
18173;DHT22;9211;48.818;9.312;2023-06-10T06:48:06;19.70;99.90
18173;DHT22;9211;48.818;9.312;2023-06-10T06:50:33;19.80;99.90
18173;DHT22;9211;48.818;9.312;2023-06-10T06:53:00;19.80;99.90
18173;DHT22;9211;48.818;9.312;2023-06-10T06:55:27;19.90;99.90
18173;DHT22;9211;48.818;9.312;2023-06-10T06:57:55;19.90;99.90
18173;DHT22;9211;48.818;9.312;2023-06-10T07:00:22;20.00;99.90
18173;DHT22;9211;48.818;9.312;2023-06-10T07:02:49;20.00;99.90
18173;DHT22;9211;48.818;9.312;2023-06-10T07:05:16;20.10;99.90
18173;DHT22;9211;48.818;9.312;2023-06-10T07:07:43;20.20;99.90
18173;DHT22;9211;48.818;9.312;2023-06-10T07:10:10;20.20;99.90
18173;DHT22;9211;48.818;9.312;2023-06-10T07:12:37;20.20;99.90
18173;DHT22;9211;48.818;9.312;2023-06-10T07:15:07;20.30;99.90
18173;DHT22;9211;48.818;9.312;2023-06-10T07:17:34;20.30;99.90
18173;DHT22;9211;48.818;9.312;2023-06-10T07:20:01;20.40;99.90
18173;DHT22;9211;48.818;9.312;2023-06-10T07:22:28;20.40;99.90
18173;DHT22;9211;48.818;9.312;2023-06-10T07:24:55;20.50;99.90
18173;DHT22;9211;48.818;9.312;2023-06-10T07:27:22;20.50;99.90
18173;DHT22;9211;48.818;9.312;2023-06-10T07:29:50;20.60;99.90
18173;DHT22;9211;48.818;9.312;2023-06-10T07:32:19;20.70;99.90
18173;DHT22;9211;48.818;9.312;2023-06-10T07:34:47;20.80;99.90
18173;DHT22;9211;48.818;9.312;2023-06-10T07:37:14;20.80;99.90
18173;DHT22;9211;48.818;9.312;2023-06-10T07:39:41;20.80;99.90
18173;DHT22;9211;48.818;9.312;2023-06-10T07:42:09;20.90;99.90
18173;DHT22;9211;48.818;9.312;2023-06-10T07:44:36;20.90;99.90
18173;DHT22;9211;48.818;9.312;2023-06-10T07:47:04;21.00;99.90
18173;DHT22;9211;48.818;9.312;2023-06-10T07:49:32;21.10;99.90
18173;DHT22;9211;48.818;9.312;2023-06-10T07:51:59;21.20;99.90
18173;DHT22;9211;48.818;9.312;2023-06-10T07:54:26;21.30;99.90
18173;DHT22;9211;48.818;9.312;2023-06-10T07:56:53;21.30;99.90
18173;DHT22;9211;48.818;9.312;2023-06-10T07:59:20;21.40;99.90
18173;DHT22;9211;48.818;9.312;2023-06-10T08:01:47;21.30;99.90
18173;DHT22;9211;48.818;9.312;2023-06-10T08:04:14;21.50;99.90
18173;DHT22;9211;48.818;9.312;2023-06-10T08:06:42;21.50;99.90
18173;DHT22;9211;48.818;9.312;2023-06-10T08:09:09;21.60;99.90
18173;DHT22;9211;48.818;9.312;2023-06-10T08:11:36;21.70;99.90
18173;DHT22;9211;48.818;9.312;2023-06-10T08:14:03;21.70;99.90
18173;DHT22;9211;48.818;9.312;2023-06-10T08:16:30;21.80;99.90
18173;DHT22;9211;48.818;9.312;2023-06-10T08:18:57;21.90;99.90
18173;DHT22;9211;48.818;9.312;2023-06-10T08:21:24;21.90;99.90
18173;DHT22;9211;48.818;9.312;2023-06-10T08:23:54;22.00;99.90
18173;DHT22;9211;48.818;9.312;2023-06-10T08:26:21;22.20;99.90
18173;DHT22;9211;48.818;9.312;2023-06-10T08:28:48;22.30;99.90
18173;DHT22;9211;48.818;9.312;2023-06-10T08:31:15;22.40;99.90
18173;DHT22;9211;48.818;9.312;2023-06-10T08:33:42;22.50;99.90
18173;DHT22;9211;48.818;9.312;2023-06-10T08:36:09;22.50;99.90
18173;DHT22;9211;48.818;9.312;2023-06-10T08:38:36;22.60;99.90
18173;DHT22;9211;48.818;9.312;2023-06-10T08:41:05;22.70;99.90
18173;DHT22;9211;48.818;9.312;2023-06-10T08:43:36;22.70;99.90
18173;DHT22;9211;48.818;9.312;2023-06-10T08:46:04;22.80;99.90
18173;DHT22;9211;48.818;9.312;2023-06-10T08:48:31;22.80;99.90
18173;DHT22;9211;48.818;9.312;2023-06-10T08:51:04;22.80;99.90
18173;DHT22;9211;48.818;9.312;2023-06-10T08:53:32;22.90;99.90
18173;DHT22;9211;48.818;9.312;2023-06-10T08:56:02;22.90;99.90
18173;DHT22;9211;48.818;9.312;2023-06-10T08:58:32;23.00;99.90
18173;DHT22;9211;48.818;9.312;2023-06-10T09:01:06;23.10;99.90
18173;DHT22;9211;48.818;9.312;2023-06-10T09:03:33;23.20;99.90
18173;DHT22;9211;48.818;9.312;2023-06-10T09:06:05;23.20;99.90
18173;DHT22;9211;48.818;9.312;2023-06-10T09:08:33;23.30;99.90
18173;DHT22;9211;48.818;9.312;2023-06-10T09:11:01;23.30;99.90
18173;DHT22;9211;48.818;9.312;2023-06-10T09:13:28;23.40;99.90
18173;DHT22;9211;48.818;9.312;2023-06-10T09:15:56;23.40;99.90
18173;DHT22;9211;48.818;9.312;2023-06-10T09:18:26;23.50;99.90
18173;DHT22;9211;48.818;9.312;2023-06-10T09:20:54;23.60;99.90
18173;DHT22;9211;48.818;9.312;2023-06-10T09:23:21;23.60;99.90
18173;DHT22;9211;48.818;9.312;2023-06-10T09:25:56;23.70;99.90
18173;DHT22;9211;48.818;9.312;2023-06-10T09:28:23;23.80;99.90
18173;DHT22;9211;48.818;9.312;2023-06-10T09:31:03;23.90;99.90
18173;DHT22;9211;48.818;9.312;2023-06-10T09:33:31;24.10;99.90
18173;DHT22;9211;48.818;9.312;2023-06-10T09:35:59;24.20;99.90
18173;DHT22;9211;48.818;9.312;2023-06-10T09:38:29;24.30;99.90
18173;DHT22;9211;48.818;9.312;2023-06-10T09:40:57;24.40;99.90
18173;DHT22;9211;48.818;9.312;2023-06-10T09:43:38;24.60;99.90
18173;DHT22;9211;48.818;9.312;2023-06-10T09:46:08;24.80;99.90
18173;DHT22;9211;48.818;9.312;2023-06-10T09:48:41;24.90;99.90
18173;DHT22;9211;48.818;9.312;2023-06-10T09:51:09;25.10;99.90
18173;DHT22;9211;48.818;9.312;2023-06-10T09:53:36;25.20;99.90
18173;DHT22;9211;48.818;9.312;2023-06-10T09:56:04;25.20;99.90
18173;DHT22;9211;48.818;9.312;2023-06-10T09:58:35;25.10;99.90
18173;DHT22;9211;48.818;9.312;2023-06-10T10:01:09;25.10;99.90
18173;DHT22;9211;48.818;9.312;2023-06-10T10:03:44;25.20;99.90
18173;DHT22;9211;48.818;9.312;2023-06-10T10:06:12;25.40;99.90
18173;DHT22;9211;48.818;9.312;2023-06-10T10:08:39;25.50;99.90
18173;DHT22;9211;48.818;9.312;2023-06-10T10:11:06;25.60;99.90
18173;DHT22;9211;48.818;9.312;2023-06-10T10:13:34;25.80;99.90
18173;DHT22;9211;48.818;9.312;2023-06-10T10:16:04;25.80;99.90
18173;DHT22;9211;48.818;9.312;2023-06-10T10:18:35;25.90;99.90
18173;DHT22;9211;48.818;9.312;2023-06-10T10:21:07;25.90;99.90
18173;DHT22;9211;48.818;9.312;2023-06-10T10:23:41;26.00;99.90
18173;DHT22;9211;48.818;9.312;2023-06-10T10:26:11;26.10;99.90
18173;DHT22;9211;48.818;9.312;2023-06-10T10:28:45;26.10;99.90
18173;DHT22;9211;48.818;9.312;2023-06-10T10:31:15;26.20;99.90
18173;DHT22;9211;48.818;9.312;2023-06-10T10:33:52;26.10;99.90
18173;DHT22;9211;48.818;9.312;2023-06-10T10:36:22;26.10;99.90
18173;DHT22;9211;48.818;9.312;2023-06-10T10:38:49;26.10;99.90
18173;DHT22;9211;48.818;9.312;2023-06-10T10:41:16;26.10;99.90
18173;DHT22;9211;48.818;9.312;2023-06-10T10:43:44;26.30;99.90
18173;DHT22;9211;48.818;9.312;2023-06-10T10:46:13;26.40;99.90
18173;DHT22;9211;48.818;9.312;2023-06-10T10:48:41;26.30;99.90
18173;DHT22;9211;48.818;9.312;2023-06-10T10:51:10;26.30;99.90
18173;DHT22;9211;48.818;9.312;2023-06-10T10:53:37;26.30;99.90
18173;DHT22;9211;48.818;9.312;2023-06-10T10:56:06;26.20;99.90
18173;DHT22;9211;48.818;9.312;2023-06-10T10:58:34;26.20;99.90
18173;DHT22;9211;48.818;9.312;2023-06-10T11:01:10;26.20;99.90
18173;DHT22;9211;48.818;9.312;2023-06-10T11:03:43;26.40;99.90
18173;DHT22;9211;48.818;9.312;2023-06-10T11:06:14;26.40;99.90
18173;DHT22;9211;48.818;9.312;2023-06-10T11:08:46;26.50;99.90
18173;DHT22;9211;48.818;9.312;2023-06-10T11:11:19;26.70;99.90
18173;DHT22;9211;48.818;9.312;2023-06-10T11:13:58;26.80;99.90
18173;DHT22;9211;48.818;9.312;2023-06-10T11:16:26;27.00;99.90
18173;DHT22;9211;48.818;9.312;2023-06-10T11:18:54;27.10;99.90
18173;DHT22;9211;48.818;9.312;2023-06-10T11:21:24;27.10;99.90
18173;DHT22;9211;48.818;9.312;2023-06-10T11:23:52;27.30;99.90
18173;DHT22;9211;48.818;9.312;2023-06-10T11:26:21;27.40;99.90
18173;DHT22;9211;48.818;9.312;2023-06-10T11:29:09;27.40;99.90
18173;DHT22;9211;48.818;9.312;2023-06-10T11:31:39;27.50;99.90
18173;DHT22;9211;48.818;9.312;2023-06-10T11:34:07;27.70;99.50
18173;DHT22;9211;48.818;9.312;2023-06-10T11:36:38;27.90;99.90
18173;DHT22;9211;48.818;9.312;2023-06-10T11:39:08;27.90;99.90
18173;DHT22;9211;48.818;9.312;2023-06-10T11:41:37;28.00;98.80
18173;DHT22;9211;48.818;9.312;2023-06-10T11:44:08;28.10;98.30
18173;DHT22;9211;48.818;9.312;2023-06-10T11:46:36;28.20;97.40
18173;DHT22;9211;48.818;9.312;2023-06-10T11:49:04;28.20;96.00
18173;DHT22;9211;48.818;9.312;2023-06-10T11:51:33;28.20;96.50
18173;DHT22;9211;48.818;9.312;2023-06-10T11:54:03;28.30;95.70
18173;DHT22;9211;48.818;9.312;2023-06-10T11:56:31;28.40;95.60
18173;DHT22;9211;48.818;9.312;2023-06-10T11:58:59;28.50;95.20
18173;DHT22;9211;48.818;9.312;2023-06-10T12:01:30;28.50;94.80
18173;DHT22;9211;48.818;9.312;2023-06-10T12:03:58;28.40;94.80
18173;DHT22;9211;48.818;9.312;2023-06-10T12:06:37;28.30;94.30
18173;DHT22;9211;48.818;9.312;2023-06-10T12:09:05;28.20;93.80
18173;DHT22;9211;48.818;9.312;2023-06-10T12:11:32;28.10;93.60
18173;DHT22;9211;48.818;9.312;2023-06-10T12:13:59;28.00;93.40
18173;DHT22;9211;48.818;9.312;2023-06-10T12:16:29;28.00;93.30
18173;DHT22;9211;48.818;9.312;2023-06-10T12:19:01;27.90;93.70
18173;DHT22;9211;48.818;9.312;2023-06-10T12:21:29;27.90;94.40
18173;DHT22;9211;48.818;9.312;2023-06-10T12:24:06;27.90;94.40
18173;DHT22;9211;48.818;9.312;2023-06-10T12:26:35;27.90;95.20
18173;DHT22;9211;48.818;9.312;2023-06-10T12:29:11;28.00;95.40
18173;DHT22;9211;48.818;9.312;2023-06-10T12:31:55;28.20;95.80
18173;DHT22;9211;48.818;9.312;2023-06-10T12:34:35;28.50;95.20
18173;DHT22;9211;48.818;9.312;2023-06-10T12:37:04;28.70;94.20
18173;DHT22;9211;48.818;9.312;2023-06-10T12:39:33;28.70;93.70
18173;DHT22;9211;48.818;9.312;2023-06-10T12:42:01;28.70;92.10
18173;DHT22;9211;48.818;9.312;2023-06-10T12:44:35;28.50;91.90
18173;DHT22;9211;48.818;9.312;2023-06-10T12:47:08;28.50;92.20
18173;DHT22;9211;48.818;9.312;2023-06-10T12:49:38;28.50;92.60
18173;DHT22;9211;48.818;9.312;2023-06-10T12:52:05;28.70;92.50
18173;DHT22;9211;48.818;9.312;2023-06-10T12:54:34;28.90;92.20
18173;DHT22;9211;48.818;9.312;2023-06-10T12:57:01;29.10;92.40
18173;DHT22;9211;48.818;9.312;2023-06-10T12:59:29;29.30;90.70
18173;DHT22;9211;48.818;9.312;2023-06-10T13:01:57;29.40;89.50
18173;DHT22;9211;48.818;9.312;2023-06-10T13:04:25;29.40;89.30
18173;DHT22;9211;48.818;9.312;2023-06-10T13:06:52;29.50;88.50
18173;DHT22;9211;48.818;9.312;2023-06-10T13:09:19;29.60;88.60
18173;DHT22;9211;48.818;9.312;2023-06-10T13:11:48;29.80;87.90
18173;DHT22;9211;48.818;9.312;2023-06-10T13:14:15;29.80;87.10
18173;DHT22;9211;48.818;9.312;2023-06-10T13:16:42;29.80;85.70
18173;DHT22;9211;48.818;9.312;2023-06-10T13:19:10;29.60;86.00
18173;DHT22;9211;48.818;9.312;2023-06-10T13:21:37;29.50;87.30
18173;DHT22;9211;48.818;9.312;2023-06-10T13:24:04;29.30;87.30
18173;DHT22;9211;48.818;9.312;2023-06-10T13:26:31;29.20;88.00
18173;DHT22;9211;48.818;9.312;2023-06-10T13:28:59;29.10;87.60
18173;DHT22;9211;48.818;9.312;2023-06-10T13:31:26;29.20;86.70
18173;DHT22;9211;48.818;9.312;2023-06-10T13:33:53;29.30;85.70
18173;DHT22;9211;48.818;9.312;2023-06-10T13:36:20;29.40;86.40
18173;DHT22;9211;48.818;9.312;2023-06-10T13:38:47;29.70;85.70
18173;DHT22;9211;48.818;9.312;2023-06-10T13:41:14;29.90;84.70
18173;DHT22;9211;48.818;9.312;2023-06-10T13:43:41;30.00;84.90
18173;DHT22;9211;48.818;9.312;2023-06-10T13:46:09;30.20;85.40
18173;DHT22;9211;48.818;9.312;2023-06-10T13:48:36;30.30;84.30
18173;DHT22;9211;48.818;9.312;2023-06-10T13:51:03;30.40;84.50
18173;DHT22;9211;48.818;9.312;2023-06-10T13:53:30;30.50;83.30
18173;DHT22;9211;48.818;9.312;2023-06-10T13:55:57;30.40;82.60
18173;DHT22;9211;48.818;9.312;2023-06-10T13:58:25;30.30;82.80
18173;DHT22;9211;48.818;9.312;2023-06-10T14:00:52;30.20;81.20
18173;DHT22;9211;48.818;9.312;2023-06-10T14:03:20;30.10;82.90
18173;DHT22;9211;48.818;9.312;2023-06-10T14:05:47;30.00;84.10
18173;DHT22;9211;48.818;9.312;2023-06-10T14:08:14;30.10;84.70
18173;DHT22;9211;48.818;9.312;2023-06-10T14:10:41;30.20;84.10
18173;DHT22;9211;48.818;9.312;2023-06-10T14:13:08;30.30;83.90
18173;DHT22;9211;48.818;9.312;2023-06-10T14:15:35;30.50;83.80
18173;DHT22;9211;48.818;9.312;2023-06-10T14:18:03;30.70;83.60
18173;DHT22;9211;48.818;9.312;2023-06-10T14:20:32;30.90;83.30
18173;DHT22;9211;48.818;9.312;2023-06-10T14:22:59;31.00;83.60
18173;DHT22;9211;48.818;9.312;2023-06-10T14:25:25;30.90;82.40
18173;DHT22;9211;48.818;9.312;2023-06-10T14:27:52;30.80;82.30
18173;DHT22;9211;48.818;9.312;2023-06-10T14:30:19;30.80;82.60
18173;DHT22;9211;48.818;9.312;2023-06-10T14:32:46;30.80;82.30
18173;DHT22;9211;48.818;9.312;2023-06-10T14:35:13;30.80;80.80
18173;DHT22;9211;48.818;9.312;2023-06-10T14:37:42;30.70;79.80
18173;DHT22;9211;48.818;9.312;2023-06-10T14:40:09;30.60;79.60
18173;DHT22;9211;48.818;9.312;2023-06-10T14:42:36;30.60;79.40
18173;DHT22;9211;48.818;9.312;2023-06-10T14:45:04;30.70;79.80
18173;DHT22;9211;48.818;9.312;2023-06-10T14:47:32;31.00;81.20
18173;DHT22;9211;48.818;9.312;2023-06-10T14:49:59;31.10;80.20
18173;DHT22;9211;48.818;9.312;2023-06-10T14:52:26;31.30;81.00
18173;DHT22;9211;48.818;9.312;2023-06-10T14:54:54;31.30;80.20
18173;DHT22;9211;48.818;9.312;2023-06-10T14:57:21;31.40;79.30
18173;DHT22;9211;48.818;9.312;2023-06-10T14:59:48;31.50;78.30
18173;DHT22;9211;48.818;9.312;2023-06-10T15:02:15;31.60;77.20
18173;DHT22;9211;48.818;9.312;2023-06-10T15:04:42;31.70;76.20
18173;DHT22;9211;48.818;9.312;2023-06-10T15:07:09;31.70;76.40
18173;DHT22;9211;48.818;9.312;2023-06-10T15:09:36;31.70;76.00
18173;DHT22;9211;48.818;9.312;2023-06-10T15:12:04;31.80;73.90
18173;DHT22;9211;48.818;9.312;2023-06-10T15:14:32;31.90;74.00
18173;DHT22;9211;48.818;9.312;2023-06-10T15:16:59;31.90;73.40
18173;DHT22;9211;48.818;9.312;2023-06-10T15:19:26;31.90;71.90
18173;DHT22;9211;48.818;9.312;2023-06-10T15:21:53;32.00;72.40
18173;DHT22;9211;48.818;9.312;2023-06-10T15:24:20;32.10;72.00
18173;DHT22;9211;48.818;9.312;2023-06-10T15:26:47;32.10;71.80
18173;DHT22;9211;48.818;9.312;2023-06-10T15:29:15;32.20;73.50
18173;DHT22;9211;48.818;9.312;2023-06-10T15:31:42;32.40;72.90
18173;DHT22;9211;48.818;9.312;2023-06-10T15:34:09;32.40;71.60
18173;DHT22;9211;48.818;9.312;2023-06-10T15:36:36;32.40;71.80
18173;DHT22;9211;48.818;9.312;2023-06-10T15:39:04;32.10;71.00
18173;DHT22;9211;48.818;9.312;2023-06-10T15:41:32;31.80;71.60
18173;DHT22;9211;48.818;9.312;2023-06-10T15:43:59;31.40;72.80
18173;DHT22;9211;48.818;9.312;2023-06-10T15:46:28;31.30;73.30
18173;DHT22;9211;48.818;9.312;2023-06-10T15:48:55;31.20;73.00
18173;DHT22;9211;48.818;9.312;2023-06-10T15:51:22;31.40;74.00
18173;DHT22;9211;48.818;9.312;2023-06-10T15:53:50;31.50;73.30